sensor_id;sensor_type;location;lat;lon;timestamp;pressure;altitude;pressure_sealevel;temperature;humidity
13690;BME280;6917;52.194;9.894;2023-07-29T00:00:42;99725.22;;;19.82;100.00
13690;BME280;6917;52.194;9.894;2023-07-29T00:03:08;99725.63;;;19.91;100.00
13690;BME280;6917;52.194;9.894;2023-07-29T00:05:33;99714.13;;;19.89;100.00
13690;BME280;6917;52.194;9.894;2023-07-29T00:07:58;99726.03;;;19.89;100.00
13690;BME280;6917;52.194;9.894;2023-07-29T00:10:24;99728.03;;;20.03;100.00
13690;BME280;6917;52.194;9.894;2023-07-29T00:12:49;99718.50;;;19.90;100.00
13690;BME280;6917;52.194;9.894;2023-07-29T00:15:14;99717.66;;;19.75;100.00
13690;BME280;6917;52.194;9.894;2023-07-29T00:17:39;99724.44;;;19.92;100.00
13690;BME280;6917;52.194;9.894;2023-07-29T00:20:06;99728.81;;;20.04;100.00
13690;BME280;6917;52.194;9.894;2023-07-29T00:22:31;99740.75;;;20.11;99.45
13690;BME280;6917;52.194;9.894;2023-07-29T00:24:56;99725.66;;;20.02;99.23
13690;BME280;6917;52.194;9.894;2023-07-29T00:27:25;99726.38;;;19.81;99.07
13690;BME280;6917;52.194;9.894;2023-07-29T00:29:51;99719.97;;;19.63;99.99
13690;BME280;6917;52.194;9.894;2023-07-29T00:32:16;99716.81;;;19.57;100.00
13690;BME280;6917;52.194;9.894;2023-07-29T00:34:41;99723.09;;;19.54;100.00
13690;BME280;6917;52.194;9.894;2023-07-29T00:37:06;99722.66;;;19.41;100.00
13690;BME280;6917;52.194;9.894;2023-07-29T00:39:32;99731.34;;;19.40;100.00
13690;BME280;6917;52.194;9.894;2023-07-29T00:41:58;99723.69;;;19.19;100.00
13690;BME280;6917;52.194;9.894;2023-07-29T00:44:23;99724.03;;;19.07;100.00
13690;BME280;6917;52.194;9.894;2023-07-29T00:46:50;99722.81;;;19.04;100.00
13690;BME280;6917;52.194;9.894;2023-07-29T00:49:17;99721.25;;;19.07;100.00
13690;BME280;6917;52.194;9.894;2023-07-29T00:51:43;99724.78;;;19.00;100.00
13690;BME280;6917;52.194;9.894;2023-07-29T00:54:08;99713.22;;;18.87;100.00
13690;BME280;6917;52.194;9.894;2023-07-29T00:56:34;99721.84;;;18.75;100.00
13690;BME280;6917;52.194;9.894;2023-07-29T00:58:59;99718.63;;;18.69;100.00
13690;BME280;6917;52.194;9.894;2023-07-29T01:01:27;99713.50;;;18.68;100.00
13690;BME280;6917;52.194;9.894;2023-07-29T01:03:53;99713.78;;;18.59;100.00
13690;BME280;6917;52.194;9.894;2023-07-29T01:06:46;99713.06;;;18.66;100.00
13690;BME280;6917;52.194;9.894;2023-07-29T01:10:00;99714.31;;;18.76;100.00
13690;BME280;6917;52.194;9.894;2023-07-29T01:12:24;99722.72;;;18.90;100.00
13690;BME280;6917;52.194;9.894;2023-07-29T01:15:08;99716.88;;;18.98;100.00
13690;BME280;6917;52.194;9.894;2023-07-29T01:17:45;99718.03;;;18.97;100.00
13690;BME280;6917;52.194;9.894;2023-07-29T01:20:14;99712.50;;;18.97;100.00
13690;BME280;6917;52.194;9.894;2023-07-29T01:22:40;99722.00;;;19.00;100.00
13690;BME280;6917;52.194;9.894;2023-07-29T01:25:05;99713.69;;;18.96;100.00
13690;BME280;6917;52.194;9.894;2023-07-29T01:27:31;99708.50;;;18.91;100.00
13690;BME280;6917;52.194;9.894;2023-07-29T01:29:57;99706.03;;;18.76;100.00
13690;BME280;6917;52.194;9.894;2023-07-29T01:32:29;99705.22;;;18.71;100.00
13690;BME280;6917;52.194;9.894;2023-07-29T01:35:06;99701.25;;;18.69;100.00
13690;BME280;6917;52.194;9.894;2023-07-29T01:37:34;99694.38;;;18.56;100.00
13690;BME280;6917;52.194;9.894;2023-07-29T01:40:03;99687.31;;;18.62;100.00
13690;BME280;6917;52.194;9.894;2023-07-29T01:42:29;99704.28;;;18.57;100.00
13690;BME280;6917;52.194;9.894;2023-07-29T01:44:55;99705.75;;;18.43;100.00
13690;BME280;6917;52.194;9.894;2023-07-29T01:47:20;99708.59;;;18.54;100.00
13690;BME280;6917;52.194;9.894;2023-07-29T01:49:47;99705.84;;;18.54;100.00
13690;BME280;6917;52.194;9.894;2023-07-29T01:52:12;99693.91;;;18.47;100.00
13690;BME280;6917;52.194;9.894;2023-07-29T01:54:38;99689.88;;;18.37;100.00
13690;BME280;6917;52.194;9.894;2023-07-29T01:57:03;99697.84;;;18.46;100.00
13690;BME280;6917;52.194;9.894;2023-07-29T01:59:28;99695.91;;;18.50;100.00
13690;BME280;6917;52.194;9.894;2023-07-29T02:01:53;99693.09;;;18.42;100.00
13690;BME280;6917;52.194;9.894;2023-07-29T02:04:19;99701.50;;;18.53;100.00
13690;BME280;6917;52.194;9.894;2023-07-29T02:06:44;99696.03;;;18.64;100.00
13690;BME280;6917;52.194;9.894;2023-07-29T02:09:09;99693.97;;;18.54;100.00
13690;BME280;6917;52.194;9.894;2023-07-29T02:11:34;99688.44;;;18.54;100.00
13690;BME280;6917;52.194;9.894;2023-07-29T02:14:00;99682.47;;;18.48;100.00
13690;BME280;6917;52.194;9.894;2023-07-29T02:16:25;99680.56;;;18.56;100.00
13690;BME280;6917;52.194;9.894;2023-07-29T02:18:50;99678.56;;;18.53;100.00
13690;BME280;6917;52.194;9.894;2023-07-29T02:21:16;99685.44;;;18.69;100.00
13690;BME280;6917;52.194;9.894;2023-07-29T02:23:41;99682.28;;;18.75;100.00
13690;BME280;6917;52.194;9.894;2023-07-29T02:26:07;99671.94;;;18.64;100.00
13690;BME280;6917;52.194;9.894;2023-07-29T02:28:32;99683.84;;;18.68;100.00
13690;BME280;6917;52.194;9.894;2023-07-29T02:31:21;99680.31;;;18.71;100.00
13690;BME280;6917;52.194;9.894;2023-07-29T02:33:46;99676.34;;;18.69;100.00
13690;BME280;6917;52.194;9.894;2023-07-29T02:36:12;99674.38;;;18.73;100.00
13690;BME280;6917;52.194;9.894;2023-07-29T02:38:38;99667.28;;;18.79;100.00
13690;BME280;6917;52.194;9.894;2023-07-29T02:41:04;99676.03;;;18.81;100.00
13690;BME280;6917;52.194;9.894;2023-07-29T02:43:29;99679.19;;;18.83;100.00
13690;BME280;6917;52.194;9.894;2023-07-29T02:45:54;99682.38;;;18.89;100.00
13690;BME280;6917;52.194;9.894;2023-07-29T02:48:20;99685.94;;;18.86;100.00
13690;BME280;6917;52.194;9.894;2023-07-29T02:50:45;99682.78;;;18.91;100.00
13690;BME280;6917;52.194;9.894;2023-07-29T02:53:10;99682.44;;;18.96;100.00
13690;BME280;6917;52.194;9.894;2023-07-29T02:55:39;99685.94;;;18.89;100.00
13690;BME280;6917;52.194;9.894;2023-07-29T02:58:04;99683.19;;;18.89;100.00
13690;BME280;6917;52.194;9.894;2023-07-29T03:00:31;99683.66;;;19.06;100.00
13690;BME280;6917;52.194;9.894;2023-07-29T03:02:56;99682.47;;;19.03;100.00
13690;BME280;6917;52.194;9.894;2023-07-29T03:05:22;99681.66;;;18.99;100.00
13690;BME280;6917;52.194;9.894;2023-07-29T03:07:47;99680.91;;;19.09;100.00
13690;BME280;6917;52.194;9.894;2023-07-29T03:10:12;99683.75;;;19.20;100.00
13690;BME280;6917;52.194;9.894;2023-07-29T03:12:38;99682.16;;;19.22;100.00
13690;BME280;6917;52.194;9.894;2023-07-29T03:15:04;99682.59;;;19.24;100.00
13690;BME280;6917;52.194;9.894;2023-07-29T03:17:29;99675.50;;;19.27;100.00
13690;BME280;6917;52.194;9.894;2023-07-29T03:19:54;99666.75;;;19.21;100.00
13690;BME280;6917;52.194;9.894;2023-07-29T03:22:20;99670.69;;;19.24;100.00
13690;BME280;6917;52.194;9.894;2023-07-29T03:24:45;99661.63;;;19.27;100.00
13690;BME280;6917;52.194;9.894;2023-07-29T03:27:10;99657.28;;;19.33;100.00
13690;BME280;6917;52.194;9.894;2023-07-29T03:29:36;99654.91;;;19.31;100.00
13690;BME280;6917;52.194;9.894;2023-07-29T03:32:01;99651.00;;;19.40;100.00
13690;BME280;6917;52.194;9.894;2023-07-29T03:34:26;99654.13;;;19.35;100.00
13690;BME280;6917;52.194;9.894;2023-07-29T03:36:51;99651.34;;;19.27;100.00
13690;BME280;6917;52.194;9.894;2023-07-29T03:39:17;99670.75;;;19.31;100.00
13690;BME280;6917;52.194;9.894;2023-07-29T03:41:42;99663.63;;;19.30;100.00
13690;BME280;6917;52.194;9.894;2023-07-29T03:44:07;99669.97;;;19.34;100.00
13690;BME280;6917;52.194;9.894;2023-07-29T03:46:33;99681.47;;;19.40;100.00
13690;BME280;6917;52.194;9.894;2023-07-29T03:48:58;99670.00;;;19.41;100.00
13690;BME280;6917;52.194;9.894;2023-07-29T03:51:23;99661.69;;;19.45;100.00
13690;BME280;6917;52.194;9.894;2023-07-29T03:53:50;99655.38;;;19.44;100.00
13690;BME280;6917;52.194;9.894;2023-07-29T03:56:15;99651.81;;;19.44;100.00
13690;BME280;6917;52.194;9.894;2023-07-29T03:58:40;99651.81;;;19.51;100.00
13690;BME280;6917;52.194;9.894;2023-07-29T04:01:06;99649.47;;;19.53;100.00
13690;BME280;6917;52.194;9.894;2023-07-29T04:03:33;99654.97;;;19.49;100.00
13690;BME280;6917;52.194;9.894;2023-07-29T04:05:58;99651.81;;;19.47;100.00
13690;BME280;6917;52.194;9.894;2023-07-29T04:08:24;99644.69;;;19.50;100.00
13690;BME280;6917;52.194;9.894;2023-07-29T04:10:49;99651.81;;;19.47;100.00
13690;BME280;6917;52.194;9.894;2023-07-29T04:13:14;99651.03;;;19.47;100.00
13690;BME280;6917;52.194;9.894;2023-07-29T04:15:39;99653.41;;;19.52;100.00
13690;BME280;6917;52.194;9.894;2023-07-29T04:18:05;99650.22;;;19.50;100.00
13690;BME280;6917;52.194;9.894;2023-07-29T04:20:30;99647.13;;;19.55;100.00
13690;BME280;6917;52.194;9.894;2023-07-29T04:22:55;99647.13;;;19.55;100.00
13690;BME280;6917;52.194;9.894;2023-07-29T04:25:20;99649.09;;;19.54;100.00
13690;BME280;6917;52.194;9.894;2023-07-29T04:27:46;99650.28;;;19.57;100.00
13690;BME280;6917;52.194;9.894;2023-07-29T04:30:11;99638.75;;;19.51;100.00
13690;BME280;6917;52.194;9.894;2023-07-29T04:32:36;99648.63;;;19.45;100.00
13690;BME280;6917;52.194;9.894;2023-07-29T04:35:02;99644.25;;;19.37;100.00
13690;BME280;6917;52.194;9.894;2023-07-29T04:37:27;99647.41;;;19.36;100.00
13690;BME280;6917;52.194;9.894;2023-07-29T04:39:52;99636.59;;;19.06;100.00
13690;BME280;6917;52.194;9.894;2023-07-29T04:42:18;99639.47;;;19.27;100.00
13690;BME280;6917;52.194;9.894;2023-07-29T04:44:43;99641.47;;;19.37;100.00
13690;BME280;6917;52.194;9.894;2023-07-29T04:47:08;99645.88;;;19.45;100.00
13690;BME280;6917;52.194;9.894;2023-07-29T04:49:34;99641.13;;;19.46;100.00
13690;BME280;6917;52.194;9.894;2023-07-29T04:51:59;99643.06;;;19.31;100.00
13690;BME280;6917;52.194;9.894;2023-07-29T04:54:24;99639.44;;;19.20;100.00
13690;BME280;6917;52.194;9.894;2023-07-29T04:56:49;99638.63;;;19.12;100.00
13690;BME280;6917;52.194;9.894;2023-07-29T04:59:15;99643.78;;;19.21;100.00
13690;BME280;6917;52.194;9.894;2023-07-29T05:01:40;99632.69;;;19.17;100.00
13690;BME280;6917;52.194;9.894;2023-07-29T05:04:07;99642.25;;;19.27;100.00
13690;BME280;6917;52.194;9.894;2023-07-29T05:06:32;99633.91;;;19.23;100.00
13690;BME280;6917;52.194;9.894;2023-07-29T05:08:58;99632.75;;;19.31;100.00
13690;BME280;6917;52.194;9.894;2023-07-29T05:11:23;99629.59;;;19.29;100.00
13690;BME280;6917;52.194;9.894;2023-07-29T05:13:50;99634.75;;;19.31;100.00
13690;BME280;6917;52.194;9.894;2023-07-29T05:16:16;99636.72;;;19.34;100.00
13690;BME280;6917;52.194;9.894;2023-07-29T05:18:41;99635.13;;;19.33;100.00
13690;BME280;6917;52.194;9.894;2023-07-29T05:21:06;99644.28;;;19.44;100.00
13690;BME280;6917;52.194;9.894;2023-07-29T05:23:33;99640.41;;;19.56;100.00
13690;BME280;6917;52.194;9.894;2023-07-29T05:25:58;99624.50;;;19.46;100.00
13690;BME280;6917;52.194;9.894;2023-07-29T05:28:24;99628.84;;;19.40;100.00
13690;BME280;6917;52.194;9.894;2023-07-29T05:30:49;99634.78;;;19.52;100.00
13690;BME280;6917;52.194;9.894;2023-07-29T05:33:14;99630.44;;;19.48;100.00
13690;BME280;6917;52.194;9.894;2023-07-29T05:35:40;99626.88;;;19.51;100.00
13690;BME280;6917;52.194;9.894;2023-07-29T05:38:05;99642.38;;;19.55;100.00
13690;BME280;6917;52.194;9.894;2023-07-29T05:40:33;99636.44;;;19.57;100.00
13690;BME280;6917;52.194;9.894;2023-07-29T05:42:58;99646.34;;;19.58;100.00
13690;BME280;6917;52.194;9.894;2023-07-29T05:45:23;99655.09;;;19.74;100.00
13690;BME280;6917;52.194;9.894;2023-07-29T05:47:49;99652.28;;;19.60;100.00
13690;BME280;6917;52.194;9.894;2023-07-29T05:50:14;99642.31;;;19.48;100.00
13690;BME280;6917;52.194;9.894;2023-07-29T05:52:40;99637.97;;;19.47;100.00
13690;BME280;6917;52.194;9.894;2023-07-29T05:55:05;99651.50;;;19.56;100.00
13690;BME280;6917;52.194;9.894;2023-07-29T05:57:30;99646.75;;;19.64;100.00
13690;BME280;6917;52.194;9.894;2023-07-29T05:59:56;99640.44;;;19.74;100.00
13690;BME280;6917;52.194;9.894;2023-07-29T06:02:21;99636.91;;;19.84;100.00
13690;BME280;6917;52.194;9.894;2023-07-29T06:04:46;99628.56;;;19.80;100.00
13690;BME280;6917;52.194;9.894;2023-07-29T06:07:12;99630.56;;;19.83;100.00
13690;BME280;6917;52.194;9.894;2023-07-29T06:09:37;99624.97;;;19.66;100.00
13690;BME280;6917;52.194;9.894;2023-07-29T06:12:03;99615.09;;;19.75;100.00
13690;BME280;6917;52.194;9.894;2023-07-29T06:14:28;99617.47;;;19.73;100.00
13690;BME280;6917;52.194;9.894;2023-07-29T06:16:53;99622.22;;;19.73;100.00
13690;BME280;6917;52.194;9.894;2023-07-29T06:19:20;99624.97;;;19.66;100.00
13690;BME280;6917;52.194;9.894;2023-07-29T06:21:45;99626.94;;;19.54;100.00
13690;BME280;6917;52.194;9.894;2023-07-29T06:24:10;99618.97;;;19.49;100.00
13690;BME280;6917;52.194;9.894;2023-07-29T06:26:36;99617.38;;;19.48;100.00
13690;BME280;6917;52.194;9.894;2023-07-29T06:29:01;99633.22;;;19.48;100.00
13690;BME280;6917;52.194;9.894;2023-07-29T06:31:26;99647.84;;;19.52;100.00
13690;BME280;6917;52.194;9.894;2023-07-29T06:33:51;99643.91;;;19.49;100.00
13690;BME280;6917;52.194;9.894;2023-07-29T06:36:17;99642.31;;;19.48;100.00
13690;BME280;6917;52.194;9.894;2023-07-29T06:38:42;99649.03;;;19.47;100.00
13690;BME280;6917;52.194;9.894;2023-07-29T06:41:08;99653.81;;;19.54;100.00
13690;BME280;6917;52.194;9.894;2023-07-29T06:43:33;99648.28;;;19.54;100.00
13690;BME280;6917;52.194;9.894;2023-07-29T06:45:59;99651.81;;;19.51;100.00
13690;BME280;6917;52.194;9.894;2023-07-29T06:48:24;99650.25;;;19.53;100.00
13690;BME280;6917;52.194;9.894;2023-07-29T06:50:50;99649.16;;;19.79;100.00
13690;BME280;6917;52.194;9.894;2023-07-29T06:53:15;99653.97;;;19.97;100.00
13690;BME280;6917;52.194;9.894;2023-07-29T06:55:41;99656.69;;;19.82;100.00
13690;BME280;6917;52.194;9.894;2023-07-29T06:58:07;99655.09;;;19.71;100.00
13690;BME280;6917;52.194;9.894;2023-07-29T07:00:32;99657.44;;;19.65;100.00
13690;BME280;6917;52.194;9.894;2023-07-29T07:02:58;99650.34;;;19.68;100.00
13690;BME280;6917;52.194;9.894;2023-07-29T07:05:23;99651.13;;;19.79;100.00
13690;BME280;6917;52.194;9.894;2023-07-29T07:07:48;99648.38;;;19.86;100.00
13690;BME280;6917;52.194;9.894;2023-07-29T07:10:14;99648.75;;;19.81;100.00
13690;BME280;6917;52.194;9.894;2023-07-29T07:12:39;99653.13;;;19.85;100.00
13690;BME280;6917;52.194;9.894;2023-07-29T07:15:05;99652.72;;;19.80;100.00
13690;BME280;6917;52.194;9.894;2023-07-29T07:17:30;99652.28;;;19.67;100.00
13690;BME280;6917;52.194;9.894;2023-07-29T07:19:56;99666.97;;;19.68;100.00
13690;BME280;6917;52.194;9.894;2023-07-29T07:22:21;99655.84;;;19.60;100.00
13690;BME280;6917;52.194;9.894;2023-07-29T07:24:46;99645.56;;;19.65;100.00
13690;BME280;6917;52.194;9.894;2023-07-29T07:27:11;99645.59;;;19.68;100.00
13690;BME280;6917;52.194;9.894;2023-07-29T07:29:37;99654.69;;;19.69;100.00
13690;BME280;6917;52.194;9.894;2023-07-29T07:32:02;99652.31;;;19.71;100.00
13690;BME280;6917;52.194;9.894;2023-07-29T07:34:27;99642.00;;;19.64;100.00
13690;BME280;6917;52.194;9.894;2023-07-29T07:36:53;99652.31;;;19.71;100.00
13690;BME280;6917;52.194;9.894;2023-07-29T07:39:18;99642.81;;;19.68;100.00
13690;BME280;6917;52.194;9.894;2023-07-29T07:41:44;99653.13;;;19.78;100.00
13690;BME280;6917;52.194;9.894;2023-07-29T07:44:09;99644.78;;;19.75;100.00
13690;BME280;6917;52.194;9.894;2023-07-29T07:46:36;99645.97;;;19.81;100.00
13690;BME280;6917;52.194;9.894;2023-07-29T07:49:01;99648.38;;;19.82;100.00
13690;BME280;6917;52.194;9.894;2023-07-29T07:51:26;99655.16;;;19.99;100.00
13690;BME280;6917;52.194;9.894;2023-07-29T07:53:51;99632.94;;;19.92;100.00
13690;BME280;6917;52.194;9.894;2023-07-29T07:56:17;99639.69;;;20.09;100.00
13690;BME280;6917;52.194;9.894;2023-07-29T07:58:42;99632.97;;;20.20;100.00
13690;BME280;6917;52.194;9.894;2023-07-29T08:01:09;99638.91;;;20.33;100.00
13690;BME280;6917;52.194;9.894;2023-07-29T08:03:35;99637.31;;;20.39;100.00
13690;BME280;6917;52.194;9.894;2023-07-29T08:06:01;99637.31;;;20.61;100.00
13690;BME280;6917;52.194;9.894;2023-07-29T08:08:27;99621.06;;;20.66;100.00
13690;BME280;6917;52.194;9.894;2023-07-29T08:10:53;99612.34;;;20.71;100.00
13690;BME280;6917;52.194;9.894;2023-07-29T08:13:22;99610.72;;;20.77;100.00
13690;BME280;6917;52.194;9.894;2023-07-29T08:15:49;99608.34;;;20.83;100.00
13690;BME280;6917;52.194;9.894;2023-07-29T08:18:15;99606.78;;;20.71;100.00
13690;BME280;6917;52.194;9.894;2023-07-29T08:20:41;99612.72;;;20.73;100.00
13690;BME280;6917;52.194;9.894;2023-07-29T08:23:06;99601.22;;;20.68;100.00
13690;BME280;6917;52.194;9.894;2023-07-29T08:25:32;99606.00;;;20.64;100.00
13690;BME280;6917;52.194;9.894;2023-07-29T08:27:57;99608.78;;;20.57;100.00
13690;BME280;6917;52.194;9.894;2023-07-29T08:30:22;99601.25;;;20.54;100.00
13690;BME280;6917;52.194;9.894;2023-07-29T08:32:47;99598.47;;;20.61;100.00
13690;BME280;6917;52.194;9.894;2023-07-29T08:35:13;99613.94;;;20.58;100.00
13690;BME280;6917;52.194;9.894;2023-07-29T08:37:38;99608.00;;;20.60;100.00
13690;BME280;6917;52.194;9.894;2023-07-29T08:40:04;99619.06;;;20.67;100.00
13690;BME280;6917;52.194;9.894;2023-07-29T08:42:32;99622.66;;;20.64;100.00
13690;BME280;6917;52.194;9.894;2023-07-29T08:45:01;99628.19;;;20.53;100.00
13690;BME280;6917;52.194;9.894;2023-07-29T08:47:31;99629.78;;;20.54;100.00
13690;BME280;6917;52.194;9.894;2023-07-29T08:49:56;99628.22;;;20.49;100.00
13690;BME280;6917;52.194;9.894;2023-07-29T08:52:23;99625.44;;;20.49;100.00
13690;BME280;6917;52.194;9.894;2023-07-29T08:54:49;99617.94;;;20.43;100.00
13690;BME280;6917;52.194;9.894;2023-07-29T08:57:15;99619.09;;;20.35;100.00
13690;BME280;6917;52.194;9.894;2023-07-29T08:59:41;99631.75;;;20.39;100.00
13690;BME280;6917;52.194;9.894;2023-07-29T09:02:06;99629.81;;;20.40;100.00
13690;BME280;6917;52.194;9.894;2023-07-29T09:04:32;99632.56;;;20.40;100.00
13690;BME280;6917;52.194;9.894;2023-07-29T09:06:58;99626.22;;;20.39;100.00
13690;BME280;6917;52.194;9.894;2023-07-29T09:09:25;99623.03;;;20.34;100.00
13690;BME280;6917;52.194;9.894;2023-07-29T09:11:50;99618.31;;;20.45;100.00
13690;BME280;6917;52.194;9.894;2023-07-29T09:14:16;99620.69;;;20.50;100.00
13690;BME280;6917;52.194;9.894;2023-07-29T09:16:41;99625.03;;;20.62;100.00
13690;BME280;6917;52.194;9.894;2023-07-29T09:19:07;99614.72;;;20.59;100.00
13690;BME280;6917;52.194;9.894;2023-07-29T09:21:32;99608.75;;;20.67;100.00
13690;BME280;6917;52.194;9.894;2023-07-29T09:24:02;99607.50;;;20.90;100.00
13690;BME280;6917;52.194;9.894;2023-07-29T09:26:28;99603.56;;;20.87;100.00
13690;BME280;6917;52.194;9.894;2023-07-29T09:28:55;99609.09;;;20.91;100.00
13690;BME280;6917;52.194;9.894;2023-07-29T09:31:22;99614.59;;;21.05;100.00
13690;BME280;6917;52.194;9.894;2023-07-29T09:33:48;99596.78;;;20.92;100.00
13690;BME280;6917;52.194;9.894;2023-07-29T09:36:13;99592.06;;;20.85;100.00
13690;BME280;6917;52.194;9.894;2023-07-29T09:38:39;99602.69;;;21.08;100.00
13690;BME280;6917;52.194;9.894;2023-07-29T09:41:04;99604.63;;;21.25;100.00
13690;BME280;6917;52.194;9.894;2023-07-29T09:43:31;99605.75;;;21.38;100.00
13690;BME280;6917;52.194;9.894;2023-07-29T09:46:01;99606.78;;;21.66;100.00
13690;BME280;6917;52.194;9.894;2023-07-29T09:48:27;99591.59;;;21.81;100.00
13690;BME280;6917;52.194;9.894;2023-07-29T09:50:57;99585.16;;;21.91;99.17
13690;BME280;6917;52.194;9.894;2023-07-29T09:53:22;99584.72;;;21.96;97.46
13690;BME280;6917;52.194;9.894;2023-07-29T09:55:48;99580.38;;;21.92;96.52
13690;BME280;6917;52.194;9.894;2023-07-29T09:58:19;99586.81;;;21.82;97.50
13690;BME280;6917;52.194;9.894;2023-07-29T10:00:45;99587.59;;;21.82;97.44
13690;BME280;6917;52.194;9.894;2023-07-29T10:03:11;99580.50;;;21.78;96.64
13690;BME280;6917;52.194;9.894;2023-07-29T10:05:37;99576.19;;;21.66;96.09
13690;BME280;6917;52.194;9.894;2023-07-29T10:08:04;99570.59;;;21.73;95.33
13690;BME280;6917;52.194;9.894;2023-07-29T10:10:30;99576.38;;;21.96;96.29
13690;BME280;6917;52.194;9.894;2023-07-29T10:12:56;99571.13;;;22.09;91.57
13690;BME280;6917;52.194;9.894;2023-07-29T10:15:22;99563.94;;;22.15;90.89
13690;BME280;6917;52.194;9.894;2023-07-29T10:17:47;99583.56;;;22.42;92.90
13690;BME280;6917;52.194;9.894;2023-07-29T10:20:15;99572.75;;;22.48;90.97
13690;BME280;6917;52.194;9.894;2023-07-29T10:22:41;99581.38;;;22.61;90.39
13690;BME280;6917;52.194;9.894;2023-07-29T10:25:18;99579.66;;;22.70;88.50
13690;BME280;6917;52.194;9.894;2023-07-29T10:28:00;99576.56;;;23.02;87.04
13690;BME280;6917;52.194;9.894;2023-07-29T10:30:30;99576.50;;;23.06;85.37
13690;BME280;6917;52.194;9.894;2023-07-29T10:32:58;99562.03;;;22.88;81.56
13690;BME280;6917;52.194;9.894;2023-07-29T10:35:24;99548.88;;;22.88;80.67
13690;BME280;6917;52.194;9.894;2023-07-29T10:37:50;99567.13;;;23.23;80.68
13690;BME280;6917;52.194;9.894;2023-07-29T10:40:17;99561.34;;;23.37;78.39
13690;BME280;6917;52.194;9.894;2023-07-29T10:43:11;99553.91;;;23.27;75.88
13690;BME280;6917;52.194;9.894;2023-07-29T10:45:39;99556.34;;;23.25;76.44
13690;BME280;6917;52.194;9.894;2023-07-29T10:48:12;99549.25;;;23.21;75.45
13690;BME280;6917;52.194;9.894;2023-07-29T10:50:37;99552.41;;;23.23;74.74
13690;BME280;6917;52.194;9.894;2023-07-29T10:53:04;99533.25;;;23.25;72.53
13690;BME280;6917;52.194;9.894;2023-07-29T10:55:35;99555.16;;;23.53;72.66
13690;BME280;6917;52.194;9.894;2023-07-29T10:58:16;99535.28;;;23.51;71.30
13690;BME280;6917;52.194;9.894;2023-07-29T11:00:45;99537.09;;;23.65;71.29
13690;BME280;6917;52.194;9.894;2023-07-29T11:03:12;99527.06;;;23.67;69.16
13690;BME280;6917;52.194;9.894;2023-07-29T11:05:43;99535.81;;;23.69;69.70
13690;BME280;6917;52.194;9.894;2023-07-29T11:08:25;99519.38;;;23.21;69.75
13690;BME280;6917;52.194;9.894;2023-07-29T11:11:08;99534.16;;;22.88;71.87
13690;BME280;6917;52.194;9.894;2023-07-29T11:13:38;99520.38;;;22.73;72.52
13690;BME280;6917;52.194;9.894;2023-07-29T11:16:04;99521.66;;;22.65;73.19
13690;BME280;6917;52.194;9.894;2023-07-29T11:18:34;99523.03;;;22.50;74.10
13690;BME280;6917;52.194;9.894;2023-07-29T11:21:01;99521.13;;;22.40;74.45
13690;BME280;6917;52.194;9.894;2023-07-29T11:23:28;99529.44;;;22.47;74.35
13690;BME280;6917;52.194;9.894;2023-07-29T11:25:54;99511.41;;;22.59;72.13
13690;BME280;6917;52.194;9.894;2023-07-29T11:28:19;99517.22;;;22.71;71.93
13690;BME280;6917;52.194;9.894;2023-07-29T11:30:45;99532.34;;;23.04;71.96
13690;BME280;6917;52.194;9.894;2023-07-29T11:33:13;99525.69;;;23.25;71.50
13690;BME280;6917;52.194;9.894;2023-07-29T11:35:39;99518.31;;;23.38;66.79
13690;BME280;6917;52.194;9.894;2023-07-29T11:38:04;99513.31;;;23.53;63.41
13690;BME280;6917;52.194;9.894;2023-07-29T11:40:30;99514.41;;;23.63;63.19
13690;BME280;6917;52.194;9.894;2023-07-29T11:42:55;99528.91;;;23.78;61.79
13690;BME280;6917;52.194;9.894;2023-07-29T11:45:21;99522.00;;;23.86;61.99
13690;BME280;6917;52.194;9.894;2023-07-29T11:47:47;99535.16;;;23.85;62.28
13690;BME280;6917;52.194;9.894;2023-07-29T11:50:13;99536.91;;;23.76;63.47
13690;BME280;6917;52.194;9.894;2023-07-29T11:52:41;99521.75;;;23.77;62.43
13690;BME280;6917;52.194;9.894;2023-07-29T11:55:08;99528.19;;;23.73;63.77
13690;BME280;6917;52.194;9.894;2023-07-29T11:57:36;99539.09;;;23.64;62.39
13690;BME280;6917;52.194;9.894;2023-07-29T12:00:03;99512.97;;;23.51;61.13
13690;BME280;6917;52.194;9.894;2023-07-29T12:02:30;99520.91;;;23.80;62.03
13690;BME280;6917;52.194;9.894;2023-07-29T12:04:56;99523.28;;;23.81;61.14
13690;BME280;6917;52.194;9.894;2023-07-29T12:07:22;99519.13;;;23.66;60.76
13690;BME280;6917;52.194;9.894;2023-07-29T12:10:03;99524.78;;;23.86;60.37
13690;BME280;6917;52.194;9.894;2023-07-29T12:12:29;99545.13;;;24.10;60.98
13690;BME280;6917;52.194;9.894;2023-07-29T12:14:55;99538.81;;;24.06;59.58
13690;BME280;6917;52.194;9.894;2023-07-29T12:17:20;99532.19;;;23.96;60.02
13690;BME280;6917;52.194;9.894;2023-07-29T12:19:45;99529.16;;;23.87;59.66
13690;BME280;6917;52.194;9.894;2023-07-29T12:22:11;99521.81;;;23.73;58.80
13690;BME280;6917;52.194;9.894;2023-07-29T12:24:38;99522.13;;;23.79;57.60
13690;BME280;6917;52.194;9.894;2023-07-29T12:27:04;99509.06;;;23.72;56.94
13690;BME280;6917;52.194;9.894;2023-07-29T12:29:30;99515.13;;;23.67;57.76
13690;BME280;6917;52.194;9.894;2023-07-29T12:31:59;99516.19;;;23.77;57.14
13690;BME280;6917;52.194;9.894;2023-07-29T12:34:27;99517.16;;;23.90;56.64
13690;BME280;6917;52.194;9.894;2023-07-29T12:36:54;99513.81;;;23.98;56.86
13690;BME280;6917;52.194;9.894;2023-07-29T12:39:31;99514.47;;;24.06;55.08
13690;BME280;6917;52.194;9.894;2023-07-29T12:41:59;99516.34;;;24.13;55.44
13690;BME280;6917;52.194;9.894;2023-07-29T12:44:26;99514.94;;;24.01;55.17
13690;BME280;6917;52.194;9.894;2023-07-29T12:46:52;99519.44;;;23.95;55.62
13690;BME280;6917;52.194;9.894;2023-07-29T12:49:20;99513.91;;;24.15;55.13
13690;BME280;6917;52.194;9.894;2023-07-29T12:51:46;99510.72;;;24.16;55.09
13690;BME280;6917;52.194;9.894;2023-07-29T12:54:11;99523.44;;;24.41;55.38
13690;BME280;6917;52.194;9.894;2023-07-29T12:56:36;99512.34;;;24.37;53.22
13690;BME280;6917;52.194;9.894;2023-07-29T12:59:02;99503.13;;;24.17;53.60